• Join FlightAware (Why Join?)
  • Login
  • US Flag 
05:24PM EDT


 

Airport Tracker/Info


-or-


 

Live Flight TrackerFlight Track Log ✈ UPS1337 ✈ 17-Mar-2014 ✈ KPIE - KSDF

Flight Track Log - Related Links

Times and Time Zones

All times are in EDT time to prevent confusion due to time zone crossing. See the UPS1337 flight status page for this flight to view local times or setup timezone preferences in your user account.

Time Position Orientation Groundspeed Altitude Reporting Facility
EDT Latitude Longitude Course Direction KTS MPH feet Rate Location/Type
09:44PM 27.9000 -82.6833 249° West 157 181 500  Level Tampa TRACON
09:45PM 27.8833 -82.7333 249° West 221 254 3,100 3,000 Climbing Tampa TRACON
09:47PM 27.9958 -82.8272 324° Northwest 287 330 9,700 2,940 Climbing Miami Center
09:48PM 28.0872 -82.8481 349° North 365 420 12,200 2,640 Climbing Miami Center
09:49PM 28.1728 -82.8431 North 336 387 14,600 1,800 Climbing Jacksonville Center
09:57PM 29.2874 -82.7041 North 539 620 28,100 1,440 Climbing FlightAware ADS-B (KMCO)
10:01PM 29.9632 -82.6210 North 510 587 33,000 900 Climbing FlightAware ADS-B (KMCO)
10:02PM 30.0464 -82.6106 North 509 586 33,000  Level FlightAware ADS-B (KMCO)
10:03PM 30.1669 -82.5958 North 511 588 33,000  Level FlightAware ADS-B (KMCO)
10:03PM 30.2427 -82.5864 North 512 589 33,000  Level FlightAware ADS-B (KMCO)
10:05PM 30.4144 -82.5675 North 501 577 33,000  Level Jacksonville Center
10:06PM 30.5542 -82.5500 North 506 582 33,000 -60 Level Jacksonville Center
10:07PM 30.6961 -82.5472 North 506 582 32,900  Descending Jacksonville Center
10:08PM 30.8381 -82.5417 North 506 582 33,000  Climbing Jacksonville Center
10:09PM 30.9822 -82.5364 North 506 582 33,000  Level Jacksonville Center
10:10PM 31.1219 -82.5311 North 506 582 33,000  Level Jacksonville Center
10:11PM 31.2683 -82.5281 North 506 582 33,000  Level Jacksonville Center
10:12PM 31.4311 -82.5128 North 522 601 33,000  Level Jacksonville Center
10:13PM 31.5689 -82.5244 356° North 515 593 33,000  Level Jacksonville Center
10:15PM 31.8258 -82.6017 346° North 479 551 33,000  Level Atlanta Center
10:16PM 31.9536 -82.6411 345° North 479 551 33,000  Level Atlanta Center
10:17PM 32.0836 -82.6808 345° North 479 551 33,000  Level Atlanta Center
10:18PM 32.2111 -82.7206 345° North 479 551 33,000 480 Level Atlanta Center
10:19PM 32.3389 -82.7631 344° North 479 551 34,000 480 Climbing Atlanta Center
10:20PM 32.4689 -82.8006 346° North 479 551 34,000  Level Atlanta Center
10:21PM 32.5944 -82.8406 345° North 474 545 34,000  Level Atlanta Center
10:22PM 32.7303 -82.8683 350° North 474 545 34,000  Level Atlanta Center
10:23PM 32.8664 -82.8964 350° North 486 559 34,000  Level Atlanta Center
10:24PM 33.0003 -82.9267 349° North 492 566 34,000  Level Atlanta Center
10:25PM 33.1467 -82.9619 349° North 486 559 34,000  Level Atlanta Center
10:26PM 33.2825 -82.9903 350° North 486 559 34,000  Level Atlanta Center
10:27PM 33.4183 -83.0183 350° North 491 565 34,000  Level Atlanta Center
10:28PM 33.5378 -83.0444 350° North 486 559 34,000  Level Atlanta Center
10:29PM 33.6778 -83.0728 350° North 491 565 34,000  Level Atlanta Center
10:34PM 34.4233 -83.2372 350° North 487 560 34,000  Level FlightAware ADS-B (KDZJ)
10:34PM 34.4911 -83.2522 350° North 487 560 34,000  Level FlightAware ADS-B (KDZJ)
10:35PM 34.5685 -83.2697 349° North 475 547 34,000  Level FlightAware ADS-B (KDZJ)
10:35PM 34.6641 -83.2923 346° North 479 551 34,000  Level FlightAware ADS-B (KDZJ)
10:36PM 34.7345 -83.3182 340° North 463 533 34,000  Level FlightAware ADS-B (KDZJ)
10:37PM 34.8352 -83.3666 339° North 464 534 34,000  Level FlightAware ADS-B (KDZJ)
10:37PM 34.8968 -83.3962 338° Northwest 452 520 34,000  Level FlightAware ADS-B (KDZJ)
10:38PM 34.9797 -83.4365 338° Northwest 451 519 34,000  Level FlightAware ADS-B (KDZJ)
10:39PM 35.0637 -83.4778 338° Northwest 457 526 34,000  Level FlightAware ADS-B (KDZJ)
10:39PM 35.1382 -83.5143 338° Northwest 456 525 34,000  Level FlightAware ADS-B (KDZJ)
10:40PM 35.2252 -83.5571 338° Northwest 455 524 34,000  Level FlightAware ADS-B (KDZJ)
10:41PM 35.3045 -83.5963 338° Northwest 452 520 34,000  Level FlightAware ADS-B (KDZJ)
10:42PM 35.3844 -83.6359 338° Northwest 452 520 34,000  Level FlightAware ADS-B (KDZJ)
10:42PM 35.4721 -83.6793 338° Northwest 450 518 34,000  Level FlightAware ADS-B (KDZJ)
10:44PM 35.5636 -83.7272 338° Northwest 454 522 34,000  Level Atlanta Center
10:45PM 35.6783 -83.7831 338° Northwest 454 522 34,000 -660 Level Atlanta Center
10:46PM 35.7933 -83.8417 338° Northwest 454 522 32,700 -1,020 Descending Atlanta Center
10:47PM 35.9081 -83.9003 338° Northwest 449 517 32,000 -360 Descending Atlanta Center
10:48PM 36.0125 -83.9617 335° Northwest 435 501 32,000 -720 Level Atlanta Center
10:50PM 36.2286 -84.0883 335° Northwest 416 479 30,000 -720 Descending Indianapolis Center
10:51PM 36.3272 -84.1475 334° Northwest 408 470 30,000  Level Indianapolis Center
10:52PM 36.4272 -84.2072 334° Northwest 403 464 30,000  Level Indianapolis Center
10:53PM 36.5325 -84.2711 334° Northwest 400 460 30,000 -1,380 Level Indianapolis Center
10:54PM 36.6303 -84.3292 335° Northwest 401 461 27,300 -2,760 Descending Indianapolis Center
10:55PM 36.7331 -84.3908 334° Northwest 406 467 24,500 -2,160 Descending Indianapolis Center
10:56PM 36.8322 -84.4511 334° Northwest 397 457 23,000 -780 Descending Indianapolis Center
10:57PM 36.9497 -84.5219 334° Northwest 408 470 23,000 -1,140 Level Indianapolis Center
10:58PM 37.0419 -84.5778 334° Northwest 409 471 20,800 -2,880 Descending Indianapolis Center
10:59PM 37.1569 -84.6475 334° Northwest 404 465 17,200 -2,820 Descending Indianapolis Center
11:00PM 37.2558 -84.7083 334° Northwest 394 453 15,100 -1,440 Descending Indianapolis Center
11:05PM 37.7006 -85.0161 295° West 275 316 8,200 -1,260 Descending FlightAware ADS-B (KBRY)
11:06PM 37.7446 -85.1240 297° West 270 311 6,900 -960 Descending FlightAware ADS-B (KBRY)
11:07PM 37.7802 -85.2135 297° West 275 316 6,100 -1,380 Descending FlightAware ADS-B (KBRY)
11:08PM 37.8020 -85.2678 298° West 273 314 4,600 -1,020 Descending FlightAware ADS-B (KBRY)
11:09PM 37.8483 -85.3826 296° West 269 310 4,100 -240 Descending FlightAware ADS-B (KBRY)
11:10PM 37.8814 -85.4656 297° West 257 296 4,100  Level FlightAware ADS-B (KBRY)
11:11PM 37.9119 -85.5435 296° West 248 285 4,100  Level FlightAware ADS-B (KBRY)
11:12PM 37.9428 -85.6103 316° Northwest 219 252 4,100  Level FlightAware ADS-B (KBRY)
11:13PM 37.9670 -85.6398 316° Northwest 199 229 4,100 -240 Level FlightAware ADS-B (KEKX)
11:13PM 37.9864 -85.6635 315° West 194 223 3,900 -720 Descending FlightAware ADS-B (KBRY)
11:15PM 38.0388 -85.6997 346° North 174 200 2,900 -840 Descending FlightAware ADS-B (KBRY)
11:16PM 38.0908 -85.7172 346° North 141 162 1,900 -840 Descending FlightAware ADS-B (KBRY)
11:17PM 38.1171 -85.7257 346° North 140 161 1,200 -780 Descending FlightAware ADS-B (KBRY)
11:25PM 38.1667 -85.7333 208° Southwest  Level FlightAware Approximate